Impacts METAR Board
IDs:

PABE - Bethel Arpt, AK, US

Updated at: 1000 UTC 18 Jan 2022
Potential Impact None Slight Moderate High
Time 17/22Z 17/23Z 18/00Z 18/01Z 18/02Z 18/03Z 18/04Z 18/05Z 18/06Z 18/07Z 18/08Z 18/09Z 18/10Z
Temp6 8 8 8 6 6 5 5 6 7 8 7 6
Dewpt3 5 5 5 3 3 2 2 3 4 4 4 2
Altim30.00 29.98 29.99 29.99 29.97 29.97 29.98 29.97 29.95 29.94 29.93 29.93 29.94
VIS10 10 10 10 10 10 10 10 10 10 10 10 10
CIG-- -- 100 -- -- -- -- -- 120 120 120 120 --
CoverCLRCLRBKNSCTCLRCLRCLRCLROVCOVCOVCOVCCLR
FltCatVFRVFRVFRVFRVFRVFRVFRVFRVFRVFRVFRVFRVFR
WX--------------------------
WDir20202030102010202030202020
WSpd10 10 9 7 12 10 10 11 11 12 11 11 10
WGst-- -- -- -- -- -- -- -- -- -- -- -- --
Raw hourly METARs
PABE 172153Z 02010KT 10SM CLR M14/M16 A3000 RMK AO2 SLP161 T11441161
PABE 172253Z 02010KT 10SM CLR M13/M15 A2998 RMK AO2 FZRAB12E13 SLP157 P0000 I1000 T11331150
PABE 172353Z 02009KT 10SM BKN100 M13/M15 A2999 RMK AO2 SLP158 60000 I1000 I6000 T11331150 11133 21156 50000
PABE 180053Z 03007KT 10SM SCT100 M13/M15 A2999 RMK AO2 SLP157 I1000 T11331150
PABE 180153Z 01012KT 10SM CLR M14/M16 A2997 RMK AO2 SLP151 T11441161
PABE 180253Z 02010KT 10SM CLR M14/M16 A2997 RMK AO2 SLP151 I3000 T11441161 56008
PABE 180353Z 01010KT 10SM CLR M15/M17 A2998 RMK AO2 SLP154 I1000 T11501167
PABE 180453Z 02011KT 10SM CLR M15/M17 A2997 RMK AO2 SLP151 T11501167
PABE 180553Z 02011KT 10SM OVC120 M14/M16 A2995 RMK AO2 SLP144 I6000 T11441161 11133 21150 58006
PABE 180653Z 03012KT 10SM OVC120 M14/M16 A2994 RMK AO2 SLP141 T11391156
PABE 180753Z 02011KT 10SM OVC120 M13/M16 A2993 RMK AO2 SLP140 T11331156
PABE 180853Z 02011KT 10SM OVC120 M14/M16 A2993 RMK AO2 SLP139 I1000 I3000 T11391156 411331172 56005
PABE 180953Z 02010KT 10SM CLR M14/M17 A2994 RMK AO2 SLP141 T11441167



Page loaded:  10:59 UTC  |   02:59 AM Pacific  |   03:59 AM Mountain  |   04:59 AM Central  |   05:59 AM Eastern

 

ADVISORIES

FORECASTS

FORECASTS

OBSERVATIONS

USER TOOLS

ABOUT US